Time;durP1;ratioP1;P1;durP2;ratioP2;P2;SDS_P1;SDS_P2;PMS_P1;PMS_P2;Temp;Humidity;BMP_temperature;BMP_pressure;BME280_temperature;BME280_humidity;BME280_pressure;Samples;Min_cycle;Max_cycle;Signal;HPM_P1;HPM_P2
2022/03/19 00:02:19;;;;;;;29.05;14.55;;;;;;;;;;5071346;28;20074;-42
2022/03/19 00:04:45;;;;;;;23.63;12.68;;;;;;;;;;5071467;28;20031;-44
2022/03/19 00:07:10;;;;;;;37.15;16.35;;;;;;;;;;5071027;28;20025;-41
2022/03/19 00:09:39;;;;;;;27.30;14.55;;;;;;;;;;5071121;28;20036;-41
2022/03/19 00:12:05;;;;;;;46.63;17.88;;;;;;;;;;5071327;28;20024;-41
2022/03/19 00:14:30;;;;;;;35.97;16.35;;;;;;;;;;5071029;28;20051;-41
2022/03/19 00:16:57;;;;;;;34.67;15.80;;;;;;;;;;5072536;28;20028;-41
2022/03/19 00:19:23;;;;;;;32.90;14.43;;;;;;;;;;5070880;28;20040;-40
2022/03/19 00:21:48;;;;;;;46.08;16.10;;;;;;;;;;5071176;28;20059;-40
2022/03/19 00:24:14;;;;;;;42.20;19.70;;;;;;;;;;5071151;28;20536;-40
2022/03/19 00:26:39;;;;;;;43.67;19.40;;;;;;;;;;5071754;28;20021;-40
2022/03/19 00:29:05;;;;;;;47.08;19.02;;;;;;;;;;5072077;28;20070;-40
2022/03/19 00:31:32;;;;;;;41.85;17.35;;;;;;;;;;5071962;28;20052;-40
2022/03/19 00:33:57;;;;;;;44.95;19.13;;;;;;;;;;5070922;28;20025;-40
2022/03/19 00:36:23;;;;;;;30.45;16.45;;;;;;;;;;5072628;28;20032;-40
2022/03/19 00:38:49;;;;;;;43.88;18.65;;;;;;;;;;5072339;28;20033;-40
2022/03/19 00:41:14;;;;;;;42.58;18.67;;;;;;;;;;5072171;28;20029;-41
2022/03/19 00:43:41;;;;;;;46.03;21.42;;;;;;;;;;5072235;28;20107;-43
2022/03/19 00:46:06;;;;;;;42.10;20.52;;;;;;;;;;5075090;28;20407;-41
2022/03/19 00:48:32;;;;;;;41.50;18.88;;;;;;;;;;5076819;28;20024;-42
2022/03/19 00:50:57;;;;;;;38.38;18.27;;;;;;;;;;5076534;28;20529;-44
2022/03/19 00:53:22;;;;;;;39.67;18.48;;;;;;;;;;5076061;28;20451;-43
2022/03/19 00:55:48;;;;;;;33.67;17.58;;;;;;;;;;5076100;28;20033;-40
2022/03/19 00:58:13;;;;;;;28.83;13.57;;;;;;;;;;5076362;28;20021;-41
2022/03/19 01:00:39;;;;;;;41.65;13.35;;;;;;;;;;5058157;28;20502;-44
2022/03/19 01:03:06;;;;;;;41.35;17.23;;;;;;;;;;5076052;28;20032;-42
2022/03/19 01:05:32;;;;;;;35.15;16.98;;;;;;;;;;5076134;28;20028;-40
2022/03/19 01:07:57;;;;;;;44.58;19.73;;;;;;;;;;5075931;28;20430;-43
2022/03/19 01:10:25;;;;;;;38.10;18.02;;;;;;;;;;5058001;28;20028;-45
2022/03/19 01:12:52;;;;;;;46.42;18.35;;;;;;;;;;5076023;28;20032;-40
2022/03/19 01:15:17;;;;;;;41.70;18.70;;;;;;;;;;5075522;28;20403;-42
2022/03/19 01:17:44;;;;;;;42.08;17.23;;;;;;;;;;5075711;28;20028;-41
2022/03/19 01:20:11;;;;;;;46.22;18.33;;;;;;;;;;5075610;28;20029;-41
2022/03/19 01:22:41;;;;;;;38.55;16.73;;;;;;;;;;5075620;28;20025;-42
2022/03/19 01:25:07;;;;;;;;;;;;;;;;;;5076346;28;20380;-41
2022/03/19 01:27:33;;;;;;;35.25;15.73;;;;;;;;;;5075737;28;19931;-43
2022/03/19 01:30:00;;;;;;;33.67;15.90;;;;;;;;;;5075562;28;20032;-42
2022/03/19 01:32:25;;;;;;;44.28;19.33;;;;;;;;;;5075622;28;20024;-41
2022/03/19 01:34:51;;;;;;;38.95;18.35;;;;;;;;;;5075404;28;20016;-42
2022/03/19 01:37:16;;;;;;;40.05;18.50;;;;;;;;;;5075367;28;20044;-42
2022/03/19 01:39:42;;;;;;;42.80;19.27;;;;;;;;;;5075595;28;20027;-42
2022/03/19 01:42:07;;;;;;;39.55;18.52;;;;;;;;;;5075504;28;20548;-43
2022/03/19 01:44:33;;;;;;;43.90;17.05;;;;;;;;;;5075868;28;20329;-41
2022/03/19 01:47:01;;;;;;;36.72;16.60;;;;;;;;;;5075127;28;20494;-41
2022/03/19 01:49:27;;;;;;;48.10;19.70;;;;;;;;;;5075305;28;20070;-42
2022/03/19 01:51:53;;;;;;;47.15;18.30;;;;;;;;;;5075203;28;20020;-41
2022/03/19 01:54:31;;;;;;;35.05;17.38;;;;;;;;;;5075104;28;20380;-41
2022/03/19 01:56:58;;;;;;;41.30;16.55;;;;;;;;;;5073829;28;20032;-43
2022/03/19 01:59:26;;;;;;;40.90;17.15;;;;;;;;;;5075205;28;20025;-41
2022/03/19 02:01:53;;;;;;;37.05;17.30;;;;;;;;;;5075055;28;20029;-41
2022/03/19 02:04:19;;;;;;;35.40;16.75;;;;;;;;;;5074955;28;20016;-41
2022/03/19 02:06:46;;;;;;;35.58;16.60;;;;;;;;;;5074869;28;20449;-40
2022/03/19 02:09:12;;;;;;;34.67;15.95;;;;;;;;;;5074768;28;20028;-42
2022/03/19 02:11:37;;;;;;;34.97;16.05;;;;;;;;;;5074573;28;20028;-41
2022/03/19 02:14:03;;;;;;;36.33;17.05;;;;;;;;;;5074955;28;20024;-41
2022/03/19 02:16:29;;;;;;;36.63;15.23;;;;;;;;;;5034969;28;20642;-44
2022/03/19 02:18:59;;;;;;;34.67;16.65;;;;;;;;;;5035010;28;20095;-43
2022/03/19 02:21:25;;;;;;;36.58;15.98;;;;;;;;;;5034902;28;20022;-42
2022/03/19 02:26:45;;;;;;;42.22;18.17;;;;;;;;;;5034808;28;20393;-42
2022/03/19 02:29:11;;;;;;;42.03;17.60;;;;;;;;;;5034805;28;20179;-42
2022/03/19 02:31:42;;;;;;;42.40;17.77;;;;;;;;;;5034767;28;20022;-43
2022/03/19 02:34:08;;;;;;;41.65;17.58;;;;;;;;;;5034350;28;20065;-41
2022/03/19 02:36:40;;;;;;;35.75;16.73;;;;;;;;;;5034720;28;20021;-41
2022/03/19 02:39:31;;;;;;;38.90;16.92;;;;;;;;;;5034358;28;20079;-42
2022/03/19 02:42:03;;;;;;;38.22;18.00;;;;;;;;;;5034350;28;20030;-44
2022/03/19 02:44:29;;;;;;;40.50;17.15;;;;;;;;;;5034331;28;20445;-42
2022/03/19 02:46:59;;;;;;;40.15;16.73;;;;;;;;;;5034378;28;20092;-42
2022/03/19 02:49:25;;;;;;;39.40;17.33;;;;;;;;;;5034431;28;20021;-42
2022/03/19 02:51:53;;;;;;;37.78;18.08;;;;;;;;;;5034051;28;20031;-41
2022/03/19 02:54:24;;;;;;;40.83;18.33;;;;;;;;;;5034041;28;20041;-42
2022/03/19 02:56:51;;;;;;;39.15;17.63;;;;;;;;;;5034119;28;20036;-42
2022/03/19 02:59:24;;;;;;;37.97;18.65;;;;;;;;;;5033976;28;20477;-45
2022/03/19 03:01:52;;;;;;;46.80;18.67;;;;;;;;;;5034231;28;20040;-42
2022/03/19 03:04:18;;;;;;;49.85;18.15;;;;;;;;;;5034217;28;20029;-42
2022/03/19 03:06:46;;;;;;;35.35;16.38;;;;;;;;;;5034142;28;20409;-44
2022/03/19 03:09:13;;;;;;;36.92;15.93;;;;;;;;;;5033927;28;20446;-42
2022/03/19 03:11:39;;;;;;;44.28;18.25;;;;;;;;;;5033984;28;20032;-42
2022/03/19 03:14:06;;;;;;;39.88;19.02;;;;;;;;;;5033951;28;20112;-42
2022/03/19 03:16:32;;;;;;;50.58;21.85;;;;;;;;;;5073465;28;20426;-42
2022/03/19 03:19:01;;;;;;;51.88;21.70;;;;;;;;;;5073613;28;20024;-44
2022/03/19 03:21:27;;;;;;;46.47;20.77;;;;;;;;;;5073335;28;20017;-46
2022/03/19 03:23:54;;;;;;;47.83;21.75;;;;;;;;;;5073612;28;20033;-43
2022/03/19 03:26:19;;;;;;;37.78;17.45;;;;;;;;;;5073490;28;20082;-44
2022/03/19 03:28:45;;;;;;;50.75;22.83;;;;;;;;;;5073155;28;20020;-42
2022/03/19 03:31:10;;;;;;;52.53;23.52;;;;;;;;;;5073479;28;20059;-41
2022/03/19 03:33:37;;;;;;;56.42;21.23;;;;;;;;;;5072980;28;20040;-42
2022/03/19 03:36:02;;;;;;;46.90;20.63;;;;;;;;;;5073151;28;20028;-41
2022/03/19 03:38:28;;;;;;;40.45;17.17;;;;;;;;;;5073291;28;20024;-41
2022/03/19 03:40:53;;;;;;;42.42;18.85;;;;;;;;;;5072951;28;20410;-42
2022/03/19 03:43:19;;;;;;;55.15;21.02;;;;;;;;;;5072908;28;20035;-41
2022/03/19 03:45:44;;;;;;;44.22;21.25;;;;;;;;;;5055132;28;20274;-44
2022/03/19 03:48:10;;;;;;;52.97;23.02;;;;;;;;;;5073060;28;20122;-41
2022/03/19 03:50:36;;;;;;;42.97;19.73;;;;;;;;;;5073133;28;20024;-43
2022/03/19 03:53:05;;;;;;;50.38;24.15;;;;;;;;;;5072612;28;20039;-41
2022/03/19 03:55:32;;;;;;;56.00;25.90;;;;;;;;;;5073044;28;20032;-41
2022/03/19 03:57:59;;;;;;;52.97;22.85;;;;;;;;;;5072795;28;20021;-41
2022/03/19 04:00:25;;;;;;;46.47;20.98;;;;;;;;;;5072968;28;20024;-42
2022/03/19 04:02:50;;;;;;;32.65;15.82;;;;;;;;;;5072904;28;20024;-41
2022/03/19 04:05:16;;;;;;;45.20;18.60;;;;;;;;;;5072769;28;20013;-41
2022/03/19 04:07:41;;;;;;;43.75;19.20;;;;;;;;;;5072482;28;20024;-43
2022/03/19 04:10:07;;;;;;;55.88;24.40;;;;;;;;;;5072854;28;20027;-41
2022/03/19 04:12:33;;;;;;;48.03;21.40;;;;;;;;;;5054495;28;20183;-40
2022/03/19 04:14:59;;;;;;;36.47;18.83;;;;;;;;;;5072375;28;20056;-44
2022/03/19 04:17:24;;;;;;;39.88;18.30;;;;;;;;;;5072814;28;20025;-41
2022/03/19 04:19:50;;;;;;;45.47;21.30;;;;;;;;;;5071710;28;20475;-44
2022/03/19 04:22:15;;;;;;;53.17;21.63;;;;;;;;;;5072508;28;20036;-42
2022/03/19 04:24:41;;;;;;;47.50;21.10;;;;;;;;;;5072656;28;20078;-44
2022/03/19 04:27:08;;;;;;;50.15;20.42;;;;;;;;;;5072652;28;20303;-42
2022/03/19 04:29:33;;;;;;;52.42;22.23;;;;;;;;;;5072300;28;20480;-43
2022/03/19 04:31:59;;;;;;;41.60;19.63;;;;;;;;;;5072559;28;20047;-42
2022/03/19 04:34:24;;;;;;;41.05;19.02;;;;;;;;;;5072511;28;20085;-41
2022/03/19 04:36:50;;;;;;;43.28;22.08;;;;;;;;;;5072806;28;20384;-43
2022/03/19 04:39:15;;;;;;;40.67;20.02;;;;;;;;;;5072275;28;20404;-42
2022/03/19 04:41:41;;;;;;;48.50;22.25;;;;;;;;;;5072328;28;20024;-42
2022/03/19 04:44:07;;;;;;;61.83;23.48;;;;;;;;;;5072528;28;20036;-43
2022/03/19 04:46:33;;;;;;;44.28;21.40;;;;;;;;;;5072488;28;20051;-41
2022/03/19 04:48:59;;;;;;;44.58;20.52;;;;;;;;;;5072343;28;20135;-41
2022/03/19 04:51:32;;;;;;;45.72;20.80;;;;;;;;;;5072527;28;20052;-41
2022/03/19 04:53:58;;;;;;;47.70;21.92;;;;;;;;;;5072599;28;20063;-41
2022/03/19 04:56:25;;;;;;;48.47;21.40;;;;;;;;;;5072147;28;20023;-44
2022/03/19 04:58:53;;;;;;;18.83;11.85;;;;;;;;;;5072066;28;20460;-40
2022/03/19 05:01:19;;;;;;;51.85;22.50;;;;;;;;;;5071856;28;20564;-41
2022/03/19 05:03:45;;;;;;;41.90;21.27;;;;;;;;;;5072314;28;20108;-41
2022/03/19 05:06:10;;;;;;;56.17;20.95;;;;;;;;;;5071964;28;20388;-40
2022/03/19 05:08:36;;;;;;;33.95;17.40;;;;;;;;;;5072259;28;20376;-41
2022/03/19 05:11:13;;;;;;;51.67;23.90;;;;;;;;;;5072175;28;20036;-40
2022/03/19 05:13:44;;;;;;;40.15;16.67;;;;;;;;;;5072109;28;20154;-42
2022/03/19 05:16:10;;;;;;;27.23;13.82;;;;;;;;;;5071786;28;20052;-40
2022/03/19 05:18:37;;;;;;;48.08;21.05;;;;;;;;;;5071830;28;20021;-42
2022/03/19 05:21:03;;;;;;;59.38;23.73;;;;;;;;;;5072097;28;20371;-41
2022/03/19 05:23:28;;;;;;;48.35;22.15;;;;;;;;;;5071946;28;20021;-40
2022/03/19 05:25:54;;;;;;;47.38;21.85;;;;;;;;;;5071758;28;20025;-41
2022/03/19 05:28:19;;;;;;;51.30;21.98;;;;;;;;;;5071829;28;20033;-42
2022/03/19 05:30:46;;;;;;;50.25;24.02;;;;;;;;;;5072230;28;20025;-44
2022/03/19 05:33:15;;;;;;;43.38;21.02;;;;;;;;;;5075526;28;20051;-42
2022/03/19 05:35:42;;;;;;;53.42;20.27;;;;;;;;;;5075353;28;20025;-41
2022/03/19 05:38:08;;;;;;;49.88;23.30;;;;;;;;;;5075581;28;20427;-41
2022/03/19 05:40:34;;;;;;;54.58;24.50;;;;;;;;;;5075627;28;20029;-40
2022/03/19 05:43:00;;;;;;;49.25;23.73;;;;;;;;;;5075505;28;20056;-41
2022/03/19 05:45:26;;;;;;;34.67;18.45;;;;;;;;;;5075402;28;20461;-41
2022/03/19 05:47:51;;;;;;;41.33;22.02;;;;;;;;;;5075259;28;20032;-42
2022/03/19 05:50:17;;;;;;;51.00;24.83;;;;;;;;;;5075148;28;20021;-43
2022/03/19 05:52:46;;;;;;;55.53;26.13;;;;;;;;;;5075073;28;20082;-44
2022/03/19 05:55:13;;;;;;;50.42;26.25;;;;;;;;;;5075272;28;20422;-41
2022/03/19 05:57:40;;;;;;;19.55;11.90;;;;;;;;;;5075313;28;20360;-42
2022/03/19 06:00:07;;;;;;;17.88;12.43;;;;;;;;;;5075307;28;20032;-40
2022/03/19 06:02:38;;;;;;;24.58;16.10;;;;;;;;;;5074820;28;20033;-40
2022/03/19 06:05:03;;;;;;;35.10;18.30;;;;;;;;;;5075013;28;20035;-40
2022/03/19 06:07:29;;;;;;;23.83;14.80;;;;;;;;;;5075038;28;20036;-40
2022/03/19 06:09:58;;;;;;;23.70;13.40;;;;;;;;;;5074737;28;20078;-40
2022/03/19 06:12:23;;;;;;;22.50;12.77;;;;;;;;;;5075260;28;20025;-40
2022/03/19 06:14:53;;;;;;;25.95;13.93;;;;;;;;;;5074439;28;20132;-42
2022/03/19 06:17:21;;;;;;;51.33;26.30;;;;;;;;;;5075008;28;20048;-40
2022/03/19 06:19:47;;;;;;;41.65;17.67;;;;;;;;;;5074767;28;20035;-40
2022/03/19 06:22:12;;;;;;;37.35;19.85;;;;;;;;;;5074537;28;20104;-40
2022/03/19 06:24:38;;;;;;;37.30;20.40;;;;;;;;;;5074660;28;20070;-40
2022/03/19 06:27:04;;;;;;;34.35;17.45;;;;;;;;;;5074512;28;20025;-40
2022/03/19 06:29:29;;;;;;;17.95;12.50;;;;;;;;;;5074425;28;20032;-40
2022/03/19 06:31:55;;;;;;;15.60;10.20;;;;;;;;;;5074402;28;20024;-42
2022/03/19 06:34:20;;;;;;;44.83;23.13;;;;;;;;;;5074308;28;20039;-40
2022/03/19 06:39:30;;;;;;;48.13;21.88;;;;;;;;;;5074321;28;20098;-40
2022/03/19 06:41:55;;;;;;;43.63;22.17;;;;;;;;;;5074405;28;20028;-40
2022/03/19 06:44:21;;;;;;;11.77;8.00;;;;;;;;;;5073784;28;20054;-40
2022/03/19 06:46:46;;;;;;;52.17;26.00;;;;;;;;;;5074098;28;20184;-41
2022/03/19 06:49:12;;;;;;;40.92;19.77;;;;;;;;;;5073992;28;20021;-41
2022/03/19 06:51:37;;;;;;;50.45;25.35;;;;;;;;;;5074025;28;20017;-41
2022/03/19 06:54:03;;;;;;;33.05;17.50;;;;;;;;;;5074164;28;20041;-40
2022/03/19 06:56:29;;;;;;;39.33;20.88;;;;;;;;;;5074168;28;20391;-41
2022/03/19 06:58:54;;;;;;;39.85;21.23;;;;;;;;;;5073859;28;20032;-40
2022/03/19 07:01:20;;;;;;;41.22;21.33;;;;;;;;;;5074203;28;20033;-40
2022/03/19 07:03:46;;;;;;;25.60;16.58;;;;;;;;;;5074028;28;20024;-41
2022/03/19 07:06:13;;;;;;;58.28;31.05;;;;;;;;;;5073753;28;20028;-40
2022/03/19 07:08:38;;;;;;;46.15;25.15;;;;;;;;;;5055927;28;20028;-41
2022/03/19 07:11:04;;;;;;;50.63;27.52;;;;;;;;;;5073636;28;20024;-39
2022/03/19 07:13:31;;;;;;;51.42;29.20;;;;;;;;;;5073713;28;20047;-38
2022/03/19 07:15:57;;;;;;;57.45;29.55;;;;;;;;;;5073361;28;20060;-39
2022/03/19 07:18:23;;;;;;;49.00;29.08;;;;;;;;;;5073530;28;20021;-40
2022/03/19 07:20:50;;;;;;;50.60;29.85;;;;;;;;;;5073486;28;20051;-41
2022/03/19 07:23:15;;;;;;;45.83;28.38;;;;;;;;;;5073702;28;20438;-40
2022/03/19 07:25:41;;;;;;;50.75;28.90;;;;;;;;;;5073250;28;20024;-38
2022/03/19 07:28:10;;;;;;;52.00;27.85;;;;;;;;;;5073551;28;20025;-45
2022/03/19 07:30:36;;;;;;;44.63;25.48;;;;;;;;;;5073304;28;20035;-40
2022/03/19 07:33:02;;;;;;;55.42;27.38;;;;;;;;;;5073337;28;20027;-41
2022/03/19 07:35:28;;;;;;;50.15;28.10;;;;;;;;;;5073079;28;20031;-40
2022/03/19 07:37:54;;;;;;;41.33;24.15;;;;;;;;;;5073376;28;20024;-39
2022/03/19 07:43:08;;;;;;;36.65;22.52;;;;;;;;;;5073367;28;20035;-39
2022/03/19 07:45:35;;;;;;;23.67;12.90;;;;;;;;;;5073024;28;20017;-40
2022/03/19 07:48:01;;;;;;;13.02;8.27;;;;;;;;;;5073124;28;20027;-41
2022/03/19 07:50:27;;;;;;;32.08;18.15;;;;;;;;;;5072943;28;20017;-40
2022/03/19 07:52:52;;;;;;;31.20;14.80;;;;;;;;;;5073101;28;20040;-41
2022/03/19 07:55:18;;;;;;;29.83;19.55;;;;;;;;;;5072191;28;20027;-42
2022/03/19 07:57:44;;;;;;;28.00;14.98;;;;;;;;;;5072994;28;20108;-41
2022/03/19 08:00:12;;;;;;;41.38;20.60;;;;;;;;;;5072966;28;20028;-43
2022/03/19 08:02:41;;;;;;;33.00;18.88;;;;;;;;;;5072692;28;20119;-41
2022/03/19 08:05:07;;;;;;;35.10;22.08;;;;;;;;;;5072747;28;20478;-43
2022/03/19 08:07:33;;;;;;;39.58;20.90;;;;;;;;;;5072926;28;20025;-47
2022/03/19 08:09:58;;;;;;;25.80;11.40;;;;;;;;;;5072634;28;20043;-42
2022/03/19 08:12:26;;;;;;;34.72;19.92;;;;;;;;;;5072798;28;20074;-41
2022/03/19 08:14:52;;;;;;;45.22;27.15;;;;;;;;;;5072590;28;20049;-42
2022/03/19 08:17:18;;;;;;;37.55;20.67;;;;;;;;;;5072554;28;20104;-41
2022/03/19 08:19:45;;;;;;;37.70;18.60;;;;;;;;;;5072821;28;20016;-41
2022/03/19 08:22:10;;;;;;;43.58;24.90;;;;;;;;;;5072732;28;20027;-40
2022/03/19 08:24:36;;;;;;;37.13;20.27;;;;;;;;;;5072504;28;20103;-44
2022/03/19 08:27:02;;;;;;;26.90;15.07;;;;;;;;;;5073115;28;20568;-43
2022/03/19 08:29:27;;;;;;;38.42;23.30;;;;;;;;;;5072628;28;20332;-40
2022/03/19 08:31:54;;;;;;;42.28;20.55;;;;;;;;;;5072304;28;20392;-41
2022/03/19 08:34:20;;;;;;;34.80;19.67;;;;;;;;;;5072577;28;20032;-40
2022/03/19 08:36:45;;;;;;;41.35;23.45;;;;;;;;;;5072587;28;20021;-40
2022/03/19 08:41:55;;;;;;;21.52;12.95;;;;;;;;;;5072655;28;20047;-40
2022/03/19 08:44:21;;;;;;;36.60;18.63;;;;;;;;;;5072199;28;20029;-42
2022/03/19 08:46:47;;;;;;;35.80;21.42;;;;;;;;;;5072483;28;20028;-42
2022/03/19 08:49:12;;;;;;;30.90;17.25;;;;;;;;;;5072530;28;20025;-40
2022/03/19 08:51:41;;;;;;;36.33;21.83;;;;;;;;;;5072492;28;20063;-41
2022/03/19 08:54:15;;;;;;;30.58;17.67;;;;;;;;;;5072378;28;20361;-40
2022/03/19 08:56:46;;;;;;;18.15;11.45;;;;;;;;;;5072463;28;20358;-40
2022/03/19 08:59:12;;;;;;;23.67;15.05;;;;;;;;;;5072355;28;20120;-42
2022/03/19 09:01:39;;;;;;;28.15;16.10;;;;;;;;;;5072209;28;20021;-41
2022/03/19 09:04:06;;;;;;;23.80;11.93;;;;;;;;;;5072049;28;20468;-41
2022/03/19 09:06:32;;;;;;;25.98;12.77;;;;;;;;;;5073887;28;20036;-43
2022/03/19 09:09:00;;;;;;;25.95;15.70;;;;;;;;;;5076109;28;20020;-44
2022/03/19 09:11:26;;;;;;;23.38;13.30;;;;;;;;;;5075975;28;20023;-40
2022/03/19 09:13:51;;;;;;;34.35;19.58;;;;;;;;;;5076037;28;20044;-41
2022/03/19 09:16:18;;;;;;;23.02;11.68;;;;;;;;;;5075699;28;20048;-42
2022/03/19 09:18:44;;;;;;;26.20;15.98;;;;;;;;;;5075450;28;20085;-41
2022/03/19 09:21:09;;;;;;;18.25;10.77;;;;;;;;;;5075564;28;20024;-39
2022/03/19 09:23:35;;;;;;;24.10;13.43;;;;;;;;;;5045541;28;20033;-38
2022/03/19 09:26:00;;;;;;;21.77;14.88;;;;;;;;;;5052256;28;20021;-38
2022/03/19 09:28:26;;;;;;;24.73;15.52;;;;;;;;;;5055965;28;20397;-38
2022/03/19 09:30:51;;;;;;;19.58;10.45;;;;;;;;;;5053244;28;20389;-40
2022/03/19 09:33:17;;;;;;;21.63;12.88;;;;;;;;;;5055038;28;20461;-41
2022/03/19 09:35:43;;;;;;;19.27;10.48;;;;;;;;;;5056849;28;20056;-39
2022/03/19 09:38:08;;;;;;;24.48;14.00;;;;;;;;;;5052730;28;20469;-42
2022/03/19 09:40:34;;;;;;;18.35;9.43;;;;;;;;;;5063339;28;20029;-39
2022/03/19 09:42:59;;;;;;;26.05;16.08;;;;;;;;;;5054464;28;20021;-40
2022/03/19 09:45:27;;;;;;;25.85;15.40;;;;;;;;;;5056567;28;20094;-41
2022/03/19 09:47:54;;;;;;;41.95;20.35;;;;;;;;;;5056606;28;20020;-38
2022/03/19 09:50:21;;;;;;;33.80;22.45;;;;;;;;;;5052638;28;20365;-40
2022/03/19 09:52:51;;;;;;;16.80;9.40;;;;;;;;;;5060327;28;20075;-38
2022/03/19 09:55:18;;;;;;;29.25;17.83;;;;;;;;;;5035638;28;20034;-38
2022/03/19 09:57:44;;;;;;;23.30;12.23;;;;;;;;;;5035344;28;20108;-39
2022/03/19 10:00:10;;;;;;;23.60;11.93;;;;;;;;;;5035050;28;20400;-39
2022/03/19 10:03:09;;;;;;;21.83;13.93;;;;;;;;;;5034815;28;20068;-38
2022/03/19 10:08:39;;;;;;;21.67;15.00;;;;;;;;;;5057272;28;20027;-39
2022/03/19 10:11:13;;;;;;;24.65;16.38;;;;;;;;;;5074962;28;20032;-39
2022/03/19 10:13:47;;;;;;;22.77;13.48;;;;;;;;;;5074628;28;20035;-40
2022/03/19 10:16:19;;;;;;;25.20;14.02;;;;;;;;;;5074488;28;20557;-38
2022/03/19 10:18:57;;;;;;;17.65;12.38;;;;;;;;;;5073806;28;20039;-40
2022/03/19 10:21:24;;;;;;;18.95;11.13;;;;;;;;;;5074566;28;20020;-38
2022/03/19 10:23:50;;;;;;;18.67;11.65;;;;;;;;;;5074689;28;20387;-42
2022/03/19 10:26:26;;;;;;;23.25;10.73;;;;;;;;;;5074376;28;20100;-39
2022/03/19 10:29:03;;;;;;;18.20;12.60;;;;;;;;;;5074398;28;20541;-41
2022/03/19 10:31:40;;;;;;;22.13;10.52;;;;;;;;;;5074681;28;20052;-38
2022/03/19 10:34:07;;;;;;;16.95;10.20;;;;;;;;;;5074269;28;20029;-41
2022/03/19 10:36:37;;;;;;;17.77;11.50;;;;;;;;;;5074497;28;20029;-40
2022/03/19 10:39:24;;;;;;;18.17;11.15;;;;;;;;;;5069147;28;20028;-38
2022/03/19 10:41:50;;;;;;;16.73;10.23;;;;;;;;;;5065059;28;20047;-44
2022/03/19 10:44:19;;;;;;;27.45;15.32;;;;;;;;;;5055340;28;20112;-46
2022/03/19 10:46:53;;;;;;;18.77;11.85;;;;;;;;;;5051886;28;20037;-43
2022/03/19 10:49:22;;;;;;;33.30;14.70;;;;;;;;;;5045883;28;20033;-43
2022/03/19 10:51:49;;;;;;;31.77;17.60;;;;;;;;;;5053046;28;20385;-43
2022/03/19 10:54:16;;;;;;;19.27;11.32;;;;;;;;;;5053375;28;20029;-47
2022/03/19 10:56:43;;;;;;;17.10;9.80;;;;;;;;;;5052752;28;20028;-51
2022/03/19 10:59:09;;;;;;;18.23;12.60;;;;;;;;;;5053712;28;20473;-46
2022/03/19 11:01:35;;;;;;;21.50;12.52;;;;;;;;;;5054137;28;20059;-42
2022/03/19 11:04:02;;;;;;;17.73;9.63;;;;;;;;;;5053831;28;20021;-46
2022/03/19 11:06:30;;;;;;;14.48;9.20;;;;;;;;;;5053669;28;20480;-44
2022/03/19 11:09:01;;;;;;;10.00;7.28;;;;;;;;;;5053808;28;20033;-44
2022/03/19 11:11:32;;;;;;;15.25;9.73;;;;;;;;;;5053845;28;20031;-48
2022/03/19 11:13:58;;;;;;;20.13;12.13;;;;;;;;;;5053800;28;20071;-43
2022/03/19 11:16:26;;;;;;;29.33;16.13;;;;;;;;;;5053397;28;20048;-49
2022/03/19 11:18:52;;;;;;;24.25;14.23;;;;;;;;;;5053766;28;20070;-42
2022/03/19 11:21:19;;;;;;;26.98;17.80;;;;;;;;;;5053557;28;20380;-41
2022/03/19 11:24:04;;;;;;;12.52;8.82;;;;;;;;;;5053680;28;20072;-43
2022/03/19 11:26:30;;;;;;;13.95;9.73;;;;;;;;;;5053503;28;20035;-47
2022/03/19 11:28:56;;;;;;;18.52;11.65;;;;;;;;;;5053418;28;20388;-48
2022/03/19 11:31:28;;;;;;;14.82;9.85;;;;;;;;;;5053581;28;20400;-43
2022/03/19 11:34:04;;;;;;;18.40;11.38;;;;;;;;;;5053428;28;20040;-46
2022/03/19 11:36:29;;;;;;;18.20;11.57;;;;;;;;;;5058937;28;20039;-45
2022/03/19 11:38:54;;;;;;;20.98;13.15;;;;;;;;;;5072403;28;20434;-42
2022/03/19 11:41:29;;;;;;;20.73;12.43;;;;;;;;;;5073208;28;20089;-44
2022/03/19 11:44:23;;;;;;;20.13;12.55;;;;;;;;;;5061336;28;20033;-44
2022/03/19 11:47:04;;;;;;;23.05;13.45;;;;;;;;;;5051888;28;20020;-44
2022/03/19 11:50:02;;;;;;;25.60;16.60;;;;;;;;;;5049616;28;20774;-49
2022/03/19 11:52:28;;;;;;;26.40;18.10;;;;;;;;;;5001528;28;20037;-42
2022/03/19 11:55:06;;;;;;;31.20;19.25;;;;;;;;;;5037698;28;20026;-39
2022/03/19 11:57:55;;;;;;;23.33;12.43;;;;;;;;;;5031604;28;20025;-39
2022/03/19 12:00:29;;;;;;;25.35;16.23;;;;;;;;;;5049842;28;20043;-39
2022/03/19 12:03:25;;;;;;;22.45;16.33;;;;;;;;;;5049733;28;20025;-44
2022/03/19 12:05:51;;;;;;;31.15;20.67;;;;;;;;;;5050898;28;20112;-46
2022/03/19 12:08:26;;;;;;;17.05;11.27;;;;;;;;;;5051392;28;20108;-45
2022/03/19 12:11:01;;;;;;;27.05;16.25;;;;;;;;;;5052298;28;20503;-45
2022/03/19 12:13:27;;;;;;;18.60;12.00;;;;;;;;;;5052465;28;20045;-42
2022/03/19 12:15:57;;;;;;;20.02;11.93;;;;;;;;;;5052135;28;20119;-45
2022/03/19 12:18:28;;;;;;;23.60;13.68;;;;;;;;;;5051587;28;20071;-47
2022/03/19 12:20:59;;;;;;;18.15;9.73;;;;;;;;;;5052528;28;20036;-45
2022/03/19 12:23:27;;;;;;;19.35;12.98;;;;;;;;;;5052506;28;20024;-42
2022/03/19 12:26:01;;;;;;;21.55;12.13;;;;;;;;;;5052314;28;20025;-43
2022/03/19 12:28:28;;;;;;;24.08;14.82;;;;;;;;;;5051866;28;20035;-42
2022/03/19 12:30:53;;;;;;;27.15;13.55;;;;;;;;;;5052283;28;20091;-44
2022/03/19 12:33:30;;;;;;;15.93;11.35;;;;;;;;;;5052221;28;20040;-42
2022/03/19 12:35:58;;;;;;;21.83;13.00;;;;;;;;;;5050949;28;20029;-43
2022/03/19 12:38:28;;;;;;;13.75;8.27;;;;;;;;;;5052585;28;20083;-46
2022/03/19 12:43:38;;;;;;;18.80;9.95;;;;;;;;;;5058161;28;20048;-44
2022/03/19 12:46:05;;;;;;;15.48;10.55;;;;;;;;;;5058934;28;20025;-39
2022/03/19 12:48:32;;;;;;;20.00;10.15;;;;;;;;;;5057863;28;20109;-45
2022/03/19 12:50:58;;;;;;;15.85;10.57;;;;;;;;;;5059058;28;20376;-43
2022/03/19 12:53:35;;;;;;;11.85;8.13;;;;;;;;;;5058762;28;20488;-45
2022/03/19 12:56:20;;;;;;;11.63;8.50;;;;;;;;;;5058743;28;20485;-42
2022/03/19 12:58:49;;;;;;;18.70;13.07;;;;;;;;;;5059056;28;20052;-45
2022/03/19 13:01:16;;;;;;;25.13;11.07;;;;;;;;;;5058709;28;20477;-41
2022/03/19 13:03:42;;;;;;;28.08;17.30;;;;;;;;;;5058629;28;20025;-41
2022/03/19 13:06:11;;;;;;;20.52;12.45;;;;;;;;;;5058637;28;20112;-48
2022/03/19 13:08:47;;;;;;;18.02;11.95;;;;;;;;;;5058957;28;20380;-43
2022/03/19 13:11:14;;;;;;;25.27;15.20;;;;;;;;;;5058864;28;20047;-51
2022/03/19 13:13:46;;;;;;;24.05;15.35;;;;;;;;;;5058899;28;20044;-44
2022/03/19 13:16:12;;;;;;;17.60;8.65;;;;;;;;;;5058551;28;20045;-44
2022/03/19 13:18:42;;;;;;;17.08;8.88;;;;;;;;;;5058795;28;20025;-50
2022/03/19 13:21:12;;;;;;;12.82;8.32;;;;;;;;;;5058861;28;20028;-42
2022/03/19 13:23:40;;;;;;;15.85;10.15;;;;;;;;;;5058415;28;20029;-45
2022/03/19 13:26:09;;;;;;;14.60;9.98;;;;;;;;;;5058175;28;20032;-43
2022/03/19 13:28:36;;;;;;;12.30;8.18;;;;;;;;;;5058831;28;20029;-41
2022/03/19 13:31:02;;;;;;;19.35;12.82;;;;;;;;;;5058406;28;20215;-44
2022/03/19 13:33:30;;;;;;;16.73;8.50;;;;;;;;;;5058334;28;20143;-41
2022/03/19 13:35:56;;;;;;;26.10;9.88;;;;;;;;;;5058761;28;20036;-46
2022/03/19 13:38:22;;;;;;;19.52;12.23;;;;;;;;;;5058318;28;20035;-43
2022/03/19 13:40:53;;;;;;;13.27;8.00;;;;;;;;;;5058643;28;20024;-43
2022/03/19 13:43:23;;;;;;;13.15;8.75;;;;;;;;;;5058601;28;20067;-41
2022/03/19 13:46:08;;;;;;;18.63;12.27;;;;;;;;;;5058617;28;20017;-45
2022/03/19 13:48:34;;;;;;;15.57;11.13;;;;;;;;;;5058175;28;20033;-42
2022/03/19 13:50:59;;;;;;;16.52;11.25;;;;;;;;;;5056988;28;20031;-48
2022/03/19 13:53:40;;;;;;;14.77;9.25;;;;;;;;;;5055842;28;20033;-43
2022/03/19 13:56:06;;;;;;;15.68;8.63;;;;;;;;;;5055196;28;20053;-46
2022/03/19 13:58:31;;;;;;;15.02;7.85;;;;;;;;;;5055360;28;20063;-41
2022/03/19 14:00:57;;;;;;;15.57;9.57;;;;;;;;;;5055347;28;20052;-40
2022/03/19 14:03:23;;;;;;;14.15;9.93;;;;;;;;;;5053846;28;20056;-39
2022/03/19 14:05:52;;;;;;;15.05;9.95;;;;;;;;;;5055079;28;20495;-46
2022/03/19 14:08:21;;;;;;;20.38;13.57;;;;;;;;;;5054851;28;20396;-40
2022/03/19 14:10:55;;;;;;;17.13;11.40;;;;;;;;;;5055141;28;20036;-44
2022/03/19 14:13:32;;;;;;;17.92;10.70;;;;;;;;;;5054875;28;20040;-41
2022/03/19 14:15:58;;;;;;;18.67;11.35;;;;;;;;;;5054745;28;20041;-39
2022/03/19 14:18:24;;;;;;;13.57;8.40;;;;;;;;;;5054769;28;20033;-44
2022/03/19 14:20:49;;;;;;;20.85;12.38;;;;;;;;;;5055013;28;20178;-40
2022/03/19 14:23:16;;;;;;;16.20;9.77;;;;;;;;;;5054577;28;20075;-40
2022/03/19 14:25:42;;;;;;;12.13;7.68;;;;;;;;;;5054578;28;20061;-44
2022/03/19 14:28:10;;;;;;;11.98;7.60;;;;;;;;;;5054832;28;20021;-43
2022/03/19 14:30:36;;;;;;;13.27;8.75;;;;;;;;;;5054385;28;20530;-39
2022/03/19 14:33:02;;;;;;;14.98;8.00;;;;;;;;;;5054399;28;20024;-42
2022/03/19 14:35:48;;;;;;;18.25;10.00;;;;;;;;;;5054423;28;20029;-39
2022/03/19 14:38:23;;;;;;;16.20;7.43;;;;;;;;;;5054383;28;20021;-44
2022/03/19 14:40:50;;;;;;;16.13;9.43;;;;;;;;;;5054402;28;20566;-41